Aviation Digital Data Service (ADDS)

Output produced by METARs form (1238 UTC 26 November 2014)
found at http://aviationweather.gov/adds/metars/
 
KMSS 261124Z 2612/2712 32005KT P6SM BKN040 OVC150 
     FM261900 02006KT P6SM OVC110 
     FM262300 03004KT 4SM -SHSN BR OVC060 
     FM270200 03005KT P6SM OVC060 
     FM270900 36004KT P6SM BKN030